Time;durP1;ratioP1;P1;durP2;ratioP2;P2;SDS_P1;SDS_P2;PMS_P1;PMS_P2;Temp;Humidity;BMP_temperature;BMP_pressure;BME280_temperature;BME280_humidity;BME280_pressure;Samples;Min_cycle;Max_cycle;Signal;HPM_P1;HPM_P2
2023/07/28 00:01:00;;;;;;;30.30;12.68;;;17.80;99.90;;;;;;5132914;27;20065;-63
2023/07/28 00:03:25;;;;;;;28.17;13.25;;;17.50;99.90;;;;;;5131324;27;20051;-62
2023/07/28 00:05:51;;;;;;;29.27;12.38;;;17.70;99.90;;;;;;5134606;27;20046;-63
2023/07/28 00:08:17;;;;;;;26.58;12.38;;;17.70;99.90;;;;;;5132744;27;20045;-62
2023/07/28 00:10:43;;;;;;;28.92;12.38;;;17.90;99.90;;;;;;5133436;27;20060;-62
2023/07/28 00:13:09;;;;;;;34.40;13.52;;;17.60;99.90;;;;;;5131047;27;20039;-63
2023/07/28 00:15:35;;;;;;;25.20;11.63;;;17.70;99.90;;;;;;5132769;27;20039;-63
2023/07/28 00:18:01;;;;;;;28.23;14.20;;;17.70;99.90;;;;;;5132717;27;20047;-62
2023/07/28 00:20:28;;;;;;;30.73;15.25;;;17.70;99.90;;;;;;5131471;27;20054;-63
2023/07/28 00:22:53;;;;;;;37.38;13.30;;;17.70;99.90;;;;;;5113663;27;20046;-62
2023/07/28 00:25:19;;;;;;;29.33;13.88;;;17.50;99.90;;;;;;5134126;27;20034;-62
2023/07/28 00:27:45;;;;;;;31.13;14.52;;;17.60;99.90;;;;;;5133898;27;20035;-62
2023/07/28 00:30:12;;;;;;;26.20;13.65;;;17.70;99.90;;;;;;5133015;27;20042;-62
2023/07/28 00:32:38;;;;;;;37.80;16.33;;;17.60;99.90;;;;;;5132972;27;20339;-62
2023/07/28 00:35:04;;;;;;;23.20;12.63;;;17.70;99.90;;;;;;5133666;27;20042;-62
2023/07/28 00:37:29;;;;;;;25.98;14.65;;;17.60;99.90;;;;;;5134106;27;20547;-61
2023/07/28 00:39:55;;;;;;;34.65;15.65;;;17.60;99.90;;;;;;5132939;27;20051;-61
2023/07/28 00:42:21;;;;;;;35.33;15.38;;;17.50;99.90;;;;;;5132873;27;20822;-62
2023/07/28 00:44:46;;;;;;;26.90;14.52;;;17.50;99.90;;;;;;5132886;27;20094;-62
2023/07/28 00:47:13;;;;;;;36.22;16.40;;;17.60;99.90;;;;;;5133089;27;20075;-61
2023/07/28 00:49:40;;;;;;;43.38;19.00;;;17.60;99.90;;;;;;5133292;27;20069;-61
2023/07/28 00:52:09;;;;;;;29.25;15.23;;;17.60;99.90;;;;;;5131855;27;20042;-61
2023/07/28 00:54:34;;;;;;;39.45;18.88;;;17.50;99.90;;;;;;5132745;27;20210;-61
2023/07/28 00:57:04;;;;;;;42.25;18.23;;;17.70;99.90;;;;;;5133000;27;20047;-62
2023/07/28 00:59:31;;;;;;;35.03;15.50;;;17.70;99.90;;;;;;5131523;27;20103;-62
2023/07/28 01:01:56;;;;;;;28.55;16.35;;;17.60;99.90;;;;;;5131301;27;20583;-62
2023/07/28 01:04:22;;;;;;;41.05;18.05;;;17.60;99.90;;;;;;5130184;27;20030;-61
2023/07/28 01:07:04;;;;;;;38.38;17.67;;;17.60;99.90;;;;;;5133029;27;20069;-61
2023/07/28 01:09:52;;;;;;;45.08;18.00;;;17.70;99.90;;;;;;5131731;27;20039;-61
2023/07/28 01:12:18;;;;;;;36.03;17.48;;;17.60;99.90;;;;;;5131112;27;20077;-61
2023/07/28 01:14:44;;;;;;;43.25;18.75;;;17.50;99.90;;;;;;5131416;27;20042;-61
2023/07/28 01:17:10;;;;;;;42.17;18.50;;;17.70;99.90;;;;;;5133281;27;20047;-61
2023/07/28 01:19:36;;;;;;;39.28;17.90;;;17.60;99.90;;;;;;5130421;27;20398;-61
2023/07/28 01:22:24;;;;;;;29.42;16.08;;;17.60;99.90;;;;;;5132877;27;20046;-61
2023/07/28 01:24:55;;;;;;;33.55;16.10;;;17.60;99.90;;;;;;5131147;27;20421;-61
2023/07/28 01:27:21;;;;;;;42.42;18.38;;;17.60;99.90;;;;;;5131121;27;20051;-61
2023/07/28 01:29:48;;;;;;;43.25;18.58;;;17.60;99.90;;;;;;5132869;27;20115;-61
2023/07/28 01:32:14;;;;;;;46.75;19.38;;;17.70;99.90;;;;;;5131469;27;20227;-62
2023/07/28 01:34:40;;;;;;;39.05;18.00;;;17.70;99.90;;;;;;5134940;27;20057;-62
2023/07/28 01:37:05;;;;;;;46.10;19.70;;;17.60;99.90;;;;;;5135378;27;20447;-63
2023/07/28 01:39:31;;;;;;;47.55;20.35;;;17.70;99.90;;;;;;5137054;27;20039;-62
2023/07/28 01:41:58;;;;;;;47.90;20.75;;;17.50;99.90;;;;;;5135285;27;20131;-63
2023/07/28 01:44:23;;;;;;;44.63;19.80;;;17.50;99.90;;;;;;5115279;27;20053;-63
2023/07/28 01:46:49;;;;;;;50.50;21.33;;;17.70;99.90;;;;;;5134296;27;20027;-63
2023/07/28 01:49:15;;;;;;;48.80;21.27;;;17.70;99.90;;;;;;5134823;27;20038;-63
2023/07/28 01:51:40;;;;;;;51.85;20.85;;;17.60;99.90;;;;;;5134207;27;20048;-63
2023/07/28 01:54:06;;;;;;;57.03;22.13;;;17.60;99.90;;;;;;5112182;27;20311;-62
2023/07/28 01:56:32;;;;;;;48.63;18.60;;;17.50;99.90;;;;;;5135450;27;20138;-62
2023/07/28 01:58:58;;;;;;;36.90;16.65;;;17.40;99.90;;;;;;5135564;27;20058;-62
2023/07/28 02:01:23;;;;;;;41.35;18.90;;;17.50;99.90;;;;;;5134918;27;20042;-62
2023/07/28 02:03:49;;;;;;;36.15;18.75;;;17.60;99.90;;;;;;5134146;27;20121;-62
2023/07/28 02:06:15;;;;;;;41.75;18.73;;;17.70;99.90;;;;;;5136554;27;20047;-62
2023/07/28 02:08:40;;;;;;;44.92;19.85;;;17.40;99.90;;;;;;5116647;27;20473;-62
2023/07/28 02:11:06;;;;;;;39.47;19.13;;;17.50;99.90;;;;;;5135120;27;20038;-63
2023/07/28 02:13:32;;;;;;;41.97;17.75;;;17.20;99.90;;;;;;5135134;27;20047;-63
2023/07/28 02:15:58;;;;;;;42.95;18.30;;;17.50;99.90;;;;;;5137512;27;20057;-63
2023/07/28 02:18:23;;;;;;;40.45;15.82;;;17.50;99.90;;;;;;5134890;27;20035;-63
2023/07/28 02:20:49;;;;;;;50.03;19.02;;;17.50;99.90;;;;;;5135220;27;20758;-64
2023/07/28 02:23:15;;;;;;;49.83;18.17;;;17.50;99.90;;;;;;5136619;27;20087;-63
2023/07/28 02:25:40;;;;;;;39.47;15.27;;;17.80;99.90;;;;;;5134470;27;20221;-63
2023/07/28 02:28:09;;;;;;;35.80;15.00;;;17.40;99.90;;;;;;5137758;27;20039;-63
2023/07/28 02:30:35;;;;;;;32.08;14.63;;;17.70;99.90;;;;;;5135879;27;20070;-63
2023/07/28 02:33:01;;;;;;;42.15;17.58;;;17.60;99.90;;;;;;5135061;27;20113;-62
2023/07/28 02:35:26;;;;;;;35.33;16.33;;;17.70;99.90;;;;;;5134072;27;20559;-63
2023/07/28 02:37:52;;;;;;;39.33;16.00;;;17.50;99.90;;;;;;5134076;27;20041;-63
2023/07/28 02:40:18;;;;;;;37.42;15.07;;;17.60;99.90;;;;;;5134678;27;20050;-63
2023/07/28 02:42:44;;;;;;;30.48;13.95;;;17.60;99.90;;;;;;5135383;27;20047;-63
2023/07/28 02:45:10;;;;;;;27.83;12.82;;;17.50;99.90;;;;;;5134046;27;20592;-63
2023/07/28 02:47:36;;;;;;;31.02;13.02;;;17.70;99.90;;;;;;5133218;27;20117;-63
2023/07/28 02:50:01;;;;;;;30.83;14.15;;;17.70;99.90;;;;;;5132299;27;20559;-62
2023/07/28 02:52:27;;;;;;;34.40;14.02;;;17.70;99.90;;;;;;5134565;27;20038;-63
2023/07/28 02:54:53;;;;;;;30.13;11.52;;;17.60;99.90;;;;;;5134459;27;20526;-62
2023/07/28 02:57:19;;;;;;;34.60;13.00;;;17.40;99.90;;;;;;5136372;27;20030;-62
2023/07/28 02:59:45;;;;;;;39.95;12.23;;;17.60;99.90;;;;;;5132563;27;20099;-62
2023/07/28 03:02:10;;;;;;;33.33;11.88;;;17.60;99.90;;;;;;5133832;27;20077;-62
2023/07/28 03:04:36;;;;;;;36.35;12.52;;;18.70;99.90;;;;;;5133387;27;20415;-62
2023/07/28 03:07:02;;;;;;;38.63;12.82;;;17.70;99.90;;;;;;5133128;27;20053;-62
2023/07/28 03:09:28;;;;;;;29.42;11.43;;;17.70;99.90;;;;;;5133905;27;20495;-63
2023/07/28 03:11:53;;;;;;;33.75;11.55;;;17.70;99.90;;;;;;5134541;27;20140;-62
2023/07/28 03:14:19;;;;;;;33.17;11.73;;;17.70;99.90;;;;;;5135186;27;20105;-62
2023/07/28 03:16:45;;;;;;;29.50;11.70;;;17.60;99.90;;;;;;5114184;27;20043;-62
2023/07/28 03:19:10;;;;;;;31.20;10.02;;;17.70;99.90;;;;;;5133352;27;20376;-62
2023/07/28 03:21:36;;;;;;;26.00;10.50;;;17.70;99.90;;;;;;5136511;27;20038;-62
2023/07/28 03:24:02;;;;;;;28.20;10.50;;;17.40;99.90;;;;;;5116258;27;20447;-63
2023/07/28 03:26:27;;;;;;;36.55;11.15;;;17.40;99.90;;;;;;5135717;27;20132;-62
2023/07/28 03:28:53;;;;;;;32.85;12.88;;;17.60;99.90;;;;;;5134851;27;20496;-62
2023/07/28 03:31:19;;;;;;;30.70;11.10;;;17.70;99.90;;;;;;5135019;27;20617;-62
2023/07/28 03:33:44;;;;;;;26.45;11.43;;;17.50;99.90;;;;;;5134736;27;20038;-62
2023/07/28 03:36:10;;;;;;;38.13;11.85;;;17.60;99.90;;;;;;5134153;27;20039;-62
2023/07/28 03:38:36;;;;;;;29.65;10.43;;;17.40;99.90;;;;;;5133603;27;20546;-62
2023/07/28 03:41:02;;;;;;;39.28;11.95;;;17.40;99.90;;;;;;5132416;27;20487;-62
2023/07/28 03:43:28;;;;;;;33.83;11.40;;;17.40;99.90;;;;;;5114792;27;20046;-62
2023/07/28 03:45:54;;;;;;;35.38;11.50;;;17.60;99.90;;;;;;5131908;27;20031;-62
2023/07/28 03:48:19;;;;;;;26.60;10.02;;;17.50;99.90;;;;;;5113982;27;20061;-62
2023/07/28 03:50:45;;;;;;;27.40;10.88;;;17.60;99.90;;;;;;5133539;27;20074;-61
2023/07/28 03:53:11;;;;;;;24.42;8.50;;;17.50;99.90;;;;;;5133276;27;20046;-62
2023/07/28 03:55:36;;;;;;;27.83;9.73;;;17.70;99.90;;;;;;5130795;27;20125;-62
2023/07/28 03:58:02;;;;;;;26.05;9.27;;;17.60;99.90;;;;;;5133219;27;20038;-62
2023/07/28 04:00:29;;;;;;;32.30;11.00;;;17.60;99.90;;;;;;5132244;27;20103;-62
2023/07/28 04:02:54;;;;;;;23.10;8.93;;;17.60;99.90;;;;;;5132637;27;20086;-61
2023/07/28 04:05:20;;;;;;;28.77;10.40;;;17.80;99.90;;;;;;5132557;27;20472;-62
2023/07/28 04:07:46;;;;;;;26.10;9.43;;;17.60;99.90;;;;;;5112845;27;20103;-62
2023/07/28 04:10:12;;;;;;;22.50;8.85;;;17.40;99.90;;;;;;5131890;27;20035;-62
2023/07/28 04:12:37;;;;;;;22.58;8.65;;;17.40;99.90;;;;;;5132955;27;20055;-61
2023/07/28 04:15:03;;;;;;;19.00;9.05;;;17.50;99.90;;;;;;5131874;27;20055;-62
2023/07/28 04:17:29;;;;;;;24.42;9.18;;;17.60;99.90;;;;;;5131999;27;20560;-62
2023/07/28 04:19:55;;;;;;;25.90;9.75;;;17.50;99.90;;;;;;5131431;27;20051;-62
2023/07/28 04:22:21;;;;;;;19.60;8.70;;;17.40;99.90;;;;;;5132535;27;20482;-62
2023/07/28 04:24:50;;;;;;;20.77;8.95;;;17.40;99.90;;;;;;5133534;27;20049;-62
2023/07/28 04:27:15;;;;;;;19.88;8.48;;;17.80;99.90;;;;;;5111290;27;20042;-62
2023/07/28 04:29:41;;;;;;;24.30;9.02;;;17.60;99.90;;;;;;5113851;27;20127;-62
2023/07/28 04:32:07;;;;;;;22.08;8.57;;;17.60;99.90;;;;;;5131298;27;20293;-62
2023/07/28 04:34:34;;;;;;;16.25;8.30;;;19.20;99.90;;;;;;5130689;27;20066;-62
2023/07/28 04:36:59;;;;;;;19.77;7.60;;;17.60;99.90;;;;;;5132324;27;20050;-62
2023/07/28 04:39:25;;;;;;;19.35;7.95;;;17.60;99.90;;;;;;5132744;27;20099;-62
2023/07/28 04:41:51;;;;;;;21.48;8.75;;;17.70;99.90;;;;;;5131803;27;20524;-62
2023/07/28 04:44:17;;;;;;;19.00;8.13;;;17.70;99.90;;;;;;5131541;27;20039;-63
2023/07/28 04:46:43;;;;;;;22.50;8.40;;;17.60;99.90;;;;;;5131041;27;20403;-62
2023/07/28 04:49:09;;;;;;;14.85;6.72;;;17.70;99.90;;;;;;5130936;27;20042;-62
2023/07/28 04:51:34;;;;;;;22.25;7.28;;;17.60;99.90;;;;;;5131889;27;20042;-62
2023/07/28 04:54:00;;;;;;;17.45;6.90;;;17.60;99.90;;;;;;5131634;27;20103;-62
2023/07/28 04:56:26;;;;;;;16.15;8.05;;;17.80;99.90;;;;;;5134118;27;20353;-62
2023/07/28 04:58:51;;;;;;;15.95;7.80;;;17.50;99.90;;;;;;5134307;27;20042;-62
2023/07/28 05:01:17;;;;;;;17.60;7.55;;;17.70;99.90;;;;;;5133439;27;20036;-62
2023/07/28 05:03:43;;;;;;;17.00;8.55;;;17.50;99.90;;;;;;5132521;27;20050;-62
2023/07/28 05:06:09;;;;;;;18.15;8.50;;;17.60;99.90;;;;;;5134041;27;20050;-62
2023/07/28 05:08:36;;;;;;;16.83;7.90;;;17.60;99.90;;;;;;5134970;27;20401;-62
2023/07/28 05:11:01;;;;;;;19.33;8.07;;;17.80;99.90;;;;;;5137023;27;20054;-62
2023/07/28 05:13:27;;;;;;;20.60;7.78;;;17.70;99.90;;;;;;5136186;27;20030;-63
2023/07/28 05:15:53;;;;;;;13.38;7.47;;;17.70;99.90;;;;;;5136346;27;20042;-62
2023/07/28 05:18:19;;;;;;;17.75;8.80;;;17.40;99.90;;;;;;5135703;27;20095;-63
2023/07/28 05:20:44;;;;;;;15.98;8.05;;;17.70;99.90;;;;;;5135730;27;20047;-62
2023/07/28 05:23:10;;;;;;;15.02;7.82;;;17.70;99.90;;;;;;5135948;27;20428;-62
2023/07/28 05:25:36;;;;;;;21.30;8.40;;;17.80;99.90;;;;;;5136721;27;20043;-62
2023/07/28 05:28:01;;;;;;;11.90;6.38;;;17.70;99.90;;;;;;5138418;27;20045;-62
2023/07/28 05:30:27;;;;;;;17.60;7.00;;;17.80;99.90;;;;;;5136807;27;20046;-62
2023/07/28 05:32:54;;;;;;;18.40;7.90;;;17.90;99.90;;;;;;5136588;27;20122;-62
2023/07/28 05:35:20;;;;;;;17.70;7.93;;;17.90;99.90;;;;;;5135314;27;20582;-62
2023/07/28 05:37:46;;;;;;;18.63;8.13;;;17.80;99.90;;;;;;5136320;27;20117;-62
2023/07/28 05:40:12;;;;;;;15.40;7.25;;;17.90;99.90;;;;;;5118496;27;20415;-62
2023/07/28 05:42:38;;;;;;;13.25;7.53;;;17.90;99.90;;;;;;5134529;27;20045;-63
2023/07/28 05:45:04;;;;;;;17.27;8.45;;;18.00;99.90;;;;;;5134994;27;20043;-62
2023/07/28 05:47:30;;;;;;;15.10;7.13;;;17.90;99.90;;;;;;5134550;27;20050;-62
2023/07/28 05:49:56;;;;;;;16.70;7.90;;;17.90;99.90;;;;;;5134018;27;20050;-62
2023/07/28 05:52:24;;;;;;;12.05;7.45;;;18.20;99.90;;;;;;5134607;27;20113;-62
2023/07/28 05:54:50;;;;;;;16.60;7.88;;;18.10;99.90;;;;;;5136267;27;20034;-62
2023/07/28 05:57:16;;;;;;;12.95;6.95;;;18.10;99.90;;;;;;5137055;27;20075;-62
2023/07/28 05:59:41;;;;;;;10.75;6.72;;;18.10;99.90;;;;;;5135426;27;20133;-62
2023/07/28 06:02:07;;;;;;;12.85;7.40;;;18.20;99.90;;;;;;5117549;27;20826;-62
2023/07/28 06:04:33;;;;;;;12.27;7.05;;;17.90;99.90;;;;;;5135534;27;20053;-62
2023/07/28 06:06:59;;;;;;;12.50;7.25;;;17.90;99.90;;;;;;5137416;27;20065;-62
2023/07/28 06:09:24;;;;;;;10.98;7.55;;;18.10;99.90;;;;;;5118294;27;20167;-62
2023/07/28 06:11:50;;;;;;;15.27;7.97;;;17.90;99.90;;;;;;5118618;27;20035;-62
2023/07/28 06:14:16;;;;;;;11.38;7.22;;;19.00;99.90;;;;;;5136264;27;20050;-62
2023/07/28 06:16:41;;;;;;;13.75;7.20;;;18.20;99.90;;;;;;5135961;27;20034;-62
2023/07/28 06:19:08;;;;;;;12.65;9.02;;;18.20;99.90;;;;;;5136153;27;20514;-62
2023/07/28 06:21:34;;;;;;;14.82;9.15;;;18.10;99.90;;;;;;5136160;27;20035;-61
2023/07/28 06:23:59;;;;;;;15.13;9.68;;;18.30;99.90;;;;;;5134675;27;20043;-63
2023/07/28 06:26:25;;;;;;;12.23;8.50;;;18.30;99.90;;;;;;5134674;27;20053;-63
2023/07/28 06:28:51;;;;;;;14.27;9.52;;;18.30;99.90;;;;;;5104422;27;22611;-63
2023/07/28 06:31:17;;;;;;;11.02;9.00;;;18.20;99.90;;;;;;5136501;27;20035;-64
2023/07/28 06:33:42;;;;;;;11.25;8.68;;;18.30;99.90;;;;;;5134614;27;20047;-63
2023/07/28 06:36:08;;;;;;;10.55;8.07;;;18.10;99.90;;;;;;5132511;27;20031;-63
2023/07/28 06:38:34;;;;;;;10.25;7.82;;;18.50;99.90;;;;;;5135197;27;20034;-63
2023/07/28 06:41:00;;;;;;;10.18;7.50;;;18.20;99.90;;;;;;5133284;27;20286;-64
2023/07/28 06:43:26;;;;;;;8.43;6.30;;;18.30;99.90;;;;;;5133337;27;20043;-63
2023/07/28 06:45:53;;;;;;;11.40;6.95;;;18.40;99.90;;;;;;5134581;27;21600;-63
2023/07/28 06:48:18;;;;;;;9.40;7.05;;;18.50;99.90;;;;;;5134334;27;20666;-63
2023/07/28 06:50:44;;;;;;;11.45;7.25;;;18.50;99.90;;;;;;5133641;27;20042;-64
2023/07/28 06:53:10;;;;;;;9.00;6.72;;;18.50;99.90;;;;;;5133084;27;20031;-64
2023/07/28 06:55:38;;;;;;;11.45;7.10;;;18.40;99.90;;;;;;5134041;27;23591;-63
2023/07/28 06:58:05;;;;;;;12.05;7.63;;;18.50;99.90;;;;;;5135284;27;20441;-63
2023/07/28 07:00:31;;;;;;;9.38;7.97;;;18.60;99.90;;;;;;5134499;27;20376;-63
2023/07/28 07:02:57;;;;;;;10.63;8.98;;;18.60;99.90;;;;;;5132763;27;20123;-63
2023/07/28 07:05:23;;;;;;;11.25;9.13;;;18.50;99.90;;;;;;5132955;27;20112;-64
2023/07/28 07:07:49;;;;;;;10.93;8.57;;;18.90;99.90;;;;;;5132770;27;20043;-63
2023/07/28 07:10:15;;;;;;;12.95;8.43;;;18.40;99.90;;;;;;5134108;27;20495;-63
2023/07/28 07:12:41;;;;;;;11.85;7.95;;;18.50;99.90;;;;;;5110481;27;20491;-63
2023/07/28 07:15:07;;;;;;;10.02;7.85;;;18.50;99.90;;;;;;5134150;27;20133;-63
2023/07/28 07:17:33;;;;;;;9.48;7.88;;;18.80;99.90;;;;;;5134125;27;20046;-63
2023/07/28 07:19:59;;;;;;;8.68;6.35;;;18.70;99.90;;;;;;5133901;27;20483;-63
2023/07/28 07:22:24;;;;;;;9.32;7.60;;;18.50;99.90;;;;;;5133506;27;20141;-63
2023/07/28 07:24:50;;;;;;;9.32;6.65;;;18.80;99.90;;;;;;5107665;27;20044;-63
2023/07/28 07:27:16;;;;;;;11.13;6.95;;;18.60;99.90;;;;;;5135223;27;20043;-64
2023/07/28 07:29:42;;;;;;;9.57;8.05;;;18.90;99.90;;;;;;5115397;27;20499;-63
2023/07/28 07:32:09;;;;;;;8.95;7.90;;;18.80;99.90;;;;;;5132413;27;20034;-63
2023/07/28 07:34:37;;;;;;;8.95;8.05;;;17.90;99.90;;;;;;5134361;27;20045;-63
2023/07/28 07:37:03;;;;;;;11.30;9.18;;;19.00;99.90;;;;;;5134141;27;20054;-63
2023/07/28 07:39:28;;;;;;;10.60;8.80;;;19.10;99.90;;;;;;5132663;27;20046;-63
2023/07/28 07:41:54;;;;;;;10.27;8.30;;;19.10;99.90;;;;;;5134708;27;20038;-57
2023/07/28 07:44:20;;;;;;;9.68;7.05;;;18.90;99.90;;;;;;5135325;27;20451;-58
2023/07/28 07:46:46;;;;;;;11.50;7.45;;;19.00;99.90;;;;;;5133558;27;20034;-57
2023/07/28 07:49:12;;;;;;;11.25;8.93;;;18.90;99.90;;;;;;5134573;27;20034;-58
2023/07/28 07:51:37;;;;;;;9.52;7.40;;;19.20;99.90;;;;;;5134964;27;20518;-58
2023/07/28 07:54:03;;;;;;;14.23;9.20;;;18.80;99.90;;;;;;5135088;27;20134;-57
2023/07/28 07:56:29;;;;;;;10.25;8.05;;;19.10;99.90;;;;;;5133651;27;20070;-57
2023/07/28 07:58:55;;;;;;;11.30;7.45;;;18.90;99.90;;;;;;5133868;27;20089;-57
2023/07/28 08:01:20;;;;;;;11.05;7.78;;;18.90;99.90;;;;;;5132716;27;20527;-59
2023/07/28 08:03:47;;;;;;;10.25;6.82;;;19.10;99.90;;;;;;5133360;27;20432;-57
2023/07/28 08:06:13;;;;;;;8.10;6.80;;;18.80;99.90;;;;;;5132651;27;20045;-57
2023/07/28 08:08:39;;;;;;;9.02;6.97;;;19.10;99.90;;;;;;5133000;27;20039;-57
2023/07/28 08:11:05;;;;;;;9.45;6.47;;;19.10;99.90;;;;;;5132577;27;20039;-57
2023/07/28 08:13:31;;;;;;;11.00;8.25;;;19.20;99.90;;;;;;5133405;27;20047;-57
2023/07/28 08:15:57;;;;;;;8.48;6.65;;;19.40;99.90;;;;;;5133666;27;20127;-57
2023/07/28 08:18:23;;;;;;;8.80;6.53;;;19.60;99.90;;;;;;5132702;27;20091;-57
2023/07/28 08:20:48;;;;;;;7.78;6.47;;;19.70;99.90;;;;;;5132395;27;20121;-57
2023/07/28 08:23:14;;;;;;;7.07;6.25;;;19.70;99.90;;;;;;5132582;27;20503;-57
2023/07/28 08:25:40;;;;;;;8.27;6.05;;;19.90;99.90;;;;;;5133770;27;20075;-57
2023/07/28 08:28:05;;;;;;;8.80;6.00;;;19.70;99.90;;;;;;5098831;27;20066;-57
2023/07/28 08:30:32;;;;;;;7.85;6.78;;;19.60;99.90;;;;;;5131869;27;20499;-57
2023/07/28 08:32:57;;;;;;;8.32;5.90;;;19.70;99.90;;;;;;5131755;27;20095;-57
2023/07/28 08:35:23;;;;;;;7.60;6.20;;;19.70;99.90;;;;;;5132083;27;20566;-58
2023/07/28 08:37:49;;;;;;;7.20;5.97;;;19.50;99.90;;;;;;5113887;27;20046;-57
2023/07/28 08:40:16;;;;;;;8.70;6.30;;;19.60;99.90;;;;;;5131421;27;20038;-57
2023/07/28 08:42:41;;;;;;;10.57;6.25;;;19.90;99.90;;;;;;5132890;27;20467;-57
2023/07/28 08:45:08;;;;;;;7.53;5.70;;;20.10;99.90;;;;;;5130674;27;20035;-58
2023/07/28 08:47:34;;;;;;;9.43;6.50;;;20.10;99.90;;;;;;5132946;27;20054;-57
2023/07/28 08:50:01;;;;;;;7.72;6.28;;;20.20;99.90;;;;;;5112392;27;20043;-57
2023/07/28 08:52:27;;;;;;;7.28;6.00;;;20.40;99.90;;;;;;5132643;27;20081;-57
2023/07/28 08:54:53;;;;;;;8.55;5.60;;;20.70;99.90;;;;;;5133107;27;20072;-57
2023/07/28 08:57:20;;;;;;;7.15;5.07;;;20.80;99.90;;;;;;5133652;27;20774;-57
2023/07/28 08:59:49;;;;;;;5.70;4.65;;;20.90;99.90;;;;;;5135789;27;20472;-57
2023/07/28 09:02:16;;;;;;;8.95;4.75;;;20.90;99.90;;;;;;5134277;27;20035;-57
2023/07/28 09:04:43;;;;;;;16.67;4.80;;;21.10;99.90;;;;;;5132685;27;20043;-58
2023/07/28 09:07:09;;;;;;;5.70;4.13;;;21.20;99.90;;;;;;5132283;27;20058;-56
2023/07/28 09:09:36;;;;;;;5.18;3.35;;;21.20;99.90;;;;;;5131378;27;20502;-57
2023/07/28 09:12:03;;;;;;;5.95;3.72;;;21.30;99.90;;;;;;5132129;27;20727;-57
2023/07/28 09:14:30;;;;;;;5.65;4.00;;;21.20;99.90;;;;;;5131617;27;20464;-57
2023/07/28 09:17:07;;;;;;;5.20;3.13;;;21.60;99.90;;;;;;5131948;27;20050;-57
2023/07/28 09:19:33;;;;;;;4.82;3.53;;;22.30;99.90;;;;;;5131301;27;20042;-57
2023/07/28 09:22:00;;;;;;;5.68;2.97;;;22.10;99.90;;;;;;5131595;27;20034;-57
2023/07/28 09:24:32;;;;;;;5.45;3.40;;;21.70;99.90;;;;;;5129698;27;20046;-57
2023/07/28 09:26:59;;;;;;;7.60;3.67;;;21.80;99.90;;;;;;5130385;27;20075;-57
2023/07/28 09:29:27;;;;;;;6.07;3.60;;;22.10;99.90;;;;;;5130998;27;20039;-56
2023/07/28 09:32:02;;;;;;;6.80;3.80;;;22.50;99.90;;;;;;5131411;27;20083;-56
2023/07/28 09:34:29;;;;;;;5.50;3.30;;;22.60;99.90;;;;;;5131503;27;20821;-57
2023/07/28 09:36:56;;;;;;;6.97;3.70;;;22.50;99.90;;;;;;5131848;27;20035;-57
2023/07/28 09:39:22;;;;;;;5.55;2.85;;;22.20;99.90;;;;;;5130550;27;20061;-57
2023/07/28 09:41:48;;;;;;;5.57;2.88;;;21.90;99.90;;;;;;5132079;27;20049;-57
2023/07/28 09:44:15;;;;;;;5.18;2.72;;;21.90;99.90;;;;;;5130282;27;20175;-57
2023/07/28 09:46:55;;;;;;;5.38;3.03;;;21.70;99.90;;;;;;5130157;27;20089;-56
2023/07/28 09:49:39;;;;;;;6.18;2.92;;;21.70;99.90;;;;;;5130563;27;20068;-57
2023/07/28 09:52:08;;;;;;;7.03;2.78;;;21.50;99.90;;;;;;5131135;27;20420;-56
2023/07/28 09:54:39;;;;;;;7.20;3.10;;;21.30;99.90;;;;;;5134036;27;20050;-57
2023/07/28 09:57:07;;;;;;;;;;;20.90;99.90;;;;;;5136266;27;20054;-57
2023/07/28 09:59:37;;;;;;;6.05;2.60;;;21.20;99.90;;;;;;5117904;27;19934;-57
2023/07/28 10:02:05;;;;;;;5.75;2.67;;;21.10;99.90;;;;;;5134543;27;20047;-57
2023/07/28 10:04:32;;;;;;;5.78;2.42;;;21.70;99.90;;;;;;5134020;27;20053;-57
2023/07/28 10:06:59;;;;;;;4.97;2.25;;;21.60;99.90;;;;;;5134520;27;20042;-57
2023/07/28 10:09:26;;;;;;;4.35;2.50;;;21.90;99.90;;;;;;5135446;27;20380;-58
2023/07/28 10:11:52;;;;;;;4.03;2.15;;;21.90;99.90;;;;;;5135694;27;20114;-57
2023/07/28 10:14:34;;;;;;;4.95;2.17;;;21.90;99.90;;;;;;5134489;27;20066;-57
2023/07/28 10:17:04;;;;;;;4.97;2.15;;;21.70;99.90;;;;;;5134215;27;20590;-57
2023/07/28 10:19:36;;;;;;;7.82;2.83;;;21.80;99.90;;;;;;5133960;27;20373;-57
2023/07/28 10:22:07;;;;;;;4.95;1.95;;;21.50;99.90;;;;;;5134544;27;20074;-57
2023/07/28 10:24:53;;;;;;;9.68;2.10;;;21.80;99.90;;;;;;5134463;27;20412;-56
2023/07/28 10:27:34;;;;;;;3.70;1.70;;;21.80;99.90;;;;;;5135181;27;20930;-58
2023/07/28 10:30:05;;;;;;;3.95;1.58;;;21.90;99.90;;;;;;5136126;27;20049;-57
2023/07/28 10:32:43;;;;;;;6.50;1.90;;;22.10;99.90;;;;;;5136224;27;20097;-57
2023/07/28 10:35:24;;;;;;;4.95;1.95;;;22.60;99.90;;;;;;5135661;27;20115;-57
2023/07/28 10:37:50;;;;;;;4.68;1.58;;;22.90;99.90;;;;;;5135651;27;20046;-57
2023/07/28 10:40:36;;;;;;;5.65;1.83;;;23.20;99.90;;;;;;5134493;27;20046;-57
2023/07/28 10:43:04;;;;;;;5.90;2.25;;;23.40;99.90;;;;;;5132723;27;20035;-57
2023/07/28 10:45:32;;;;;;;8.88;1.90;;;23.20;99.90;;;;;;5116065;27;20035;-56
2023/07/28 10:48:03;;;;;;;5.53;1.90;;;22.90;99.90;;;;;;5134196;27;20388;-56
2023/07/28 10:50:32;;;;;;;5.68;1.80;;;22.80;99.90;;;;;;5133056;27;20042;-56
2023/07/28 10:52:58;;;;;;;3.50;1.67;;;22.70;99.90;;;;;;5133324;27;20075;-57
2023/07/28 10:55:27;;;;;;;5.82;1.60;;;22.80;99.90;;;;;;5133482;27;20671;-56
2023/07/28 10:57:55;;;;;;;5.00;1.77;;;22.60;99.90;;;;;;5133064;27;20035;-56
2023/07/28 11:00:22;;;;;;;3.90;1.42;;;23.20;99.90;;;;;;5133851;27;20129;-56
2023/07/28 11:02:51;;;;;;;5.28;2.00;;;22.60;99.90;;;;;;5110827;27;20051;-57
2023/07/28 11:05:25;;;;;;;5.95;1.70;;;23.00;99.90;;;;;;5133035;27;20039;-57
2023/07/28 11:07:54;;;;;;;4.28;1.88;;;23.50;99.90;;;;;;5133650;27;20415;-57
2023/07/28 11:10:20;;;;;;;2.45;1.40;;;23.40;99.90;;;;;;5134683;27;20470;-57
2023/07/28 11:12:48;;;;;;;3.10;1.60;;;24.00;99.90;;;;;;5132736;27;20130;-54
2023/07/28 11:15:16;;;;;;;5.22;1.67;;;24.00;99.90;;;;;;5134521;27;20043;-52
2023/07/28 11:17:47;;;;;;;4.40;1.67;;;23.70;99.90;;;;;;5134694;27;20045;-53
2023/07/28 11:20:24;;;;;;;3.67;1.70;;;23.60;99.90;;;;;;5134682;27;20042;-50
2023/07/28 11:23:05;;;;;;;4.25;1.38;;;23.40;99.90;;;;;;5135012;27;20337;-54
2023/07/28 11:25:33;;;;;;;2.30;1.05;;;23.30;99.90;;;;;;5133739;27;20058;-54
2023/07/28 11:28:05;;;;;;;3.35;1.20;;;23.00;99.90;;;;;;5134444;27;20043;-51
2023/07/28 11:30:31;;;;;;;4.18;1.20;;;23.40;99.90;;;;;;5135322;27;20153;-54
2023/07/28 11:32:58;;;;;;;4.60;1.40;;;23.30;99.90;;;;;;5134855;27;20111;-52
2023/07/28 11:35:23;;;;;;;4.47;1.20;;;23.20;99.90;;;;;;5134560;27;20091;-54
2023/07/28 11:37:51;;;;;;;4.05;1.30;;;23.20;99.90;;;;;;5136908;27;20042;-50
2023/07/28 11:40:20;;;;;;;2.70;1.23;;;23.20;99.90;;;;;;5135037;27;20384;-55
2023/07/28 11:42:52;;;;;;;4.88;1.55;;;23.10;99.90;;;;;;5134469;27;20103;-54
2023/07/28 11:45:19;;;;;;;4.45;1.50;;;23.40;99.90;;;;;;5136096;27;20555;-54
2023/07/28 11:47:58;;;;;;;5.10;1.55;;;23.80;99.90;;;;;;5135949;27;20043;-55
2023/07/28 11:50:29;;;;;;;3.42;1.40;;;24.00;99.90;;;;;;5114381;27;20065;-55
2023/07/28 11:52:58;;;;;;;2.60;1.25;;;24.20;99.90;;;;;;5136351;27;20312;-54
2023/07/28 11:55:24;;;;;;;3.35;1.45;;;24.30;99.90;;;;;;5136529;27;20138;-55
2023/07/28 11:57:52;;;;;;;2.15;1.10;;;23.00;99.90;;;;;;5136389;27;20109;-55
2023/07/28 12:00:18;;;;;;;2.65;1.20;;;25.00;99.90;;;;;;5134103;27;20106;-55
2023/07/28 12:02:45;;;;;;;5.45;1.05;;;25.10;99.90;;;;;;5133786;27;20496;-53
2023/07/28 12:05:16;;;;;;;2.97;1.20;;;25.00;99.90;;;;;;5134407;27;20046;-54
2023/07/28 12:07:47;;;;;;;4.40;1.15;;;25.30;99.90;;;;;;5133725;27;20035;-54
2023/07/28 12:10:13;;;;;;;3.60;1.48;;;25.50;99.90;;;;;;5133323;27;20838;-55
2023/07/28 12:12:46;;;;;;;2.50;0.93;;;25.40;99.90;;;;;;5133374;27;20079;-56
2023/07/28 12:15:23;;;;;;;2.00;1.10;;;25.00;99.90;;;;;;5114524;27;20337;-54
2023/07/28 12:18:05;;;;;;;2.92;1.15;;;25.10;99.90;;;;;;5133351;27;20035;-53
2023/07/28 12:20:49;;;;;;;3.40;1.30;;;25.00;99.90;;;;;;5133242;27;20073;-54
2023/07/28 12:23:19;;;;;;;3.38;1.10;;;24.90;99.90;;;;;;5134893;27;20473;-55
2023/07/28 12:25:46;;;;;;;3.03;1.30;;;25.20;99.90;;;;;;5132960;27;20066;-55
2023/07/28 12:28:12;;;;;;;2.90;1.00;;;25.10;99.90;;;;;;5133579;27;20038;-54
2023/07/28 12:30:38;;;;;;;2.53;1.20;;;25.20;99.90;;;;;;5134987;27;20118;-54
2023/07/28 12:33:05;;;;;;;3.00;1.45;;;25.30;99.90;;;;;;5132609;27;20053;-54
2023/07/28 12:35:34;;;;;;;2.55;1.00;;;25.50;99.90;;;;;;5131747;27;20043;-54
2023/07/28 12:38:01;;;;;;;2.00;1.13;;;25.70;99.90;;;;;;5132210;27;20065;-55